createdAt,value
2023-02-16T00:00:39.839Z,99.90
2023-02-16T00:03:10.005Z,99.90
2023-02-16T00:05:36.657Z,99.90
2023-02-16T00:08:03.282Z,99.90
2023-02-16T00:10:34.247Z,99.90
2023-02-16T00:13:19.804Z,99.90
2023-02-16T00:15:47.030Z,99.90
2023-02-16T00:18:18.236Z,99.90
2023-02-16T00:20:45.024Z,99.90
2023-02-16T00:23:11.621Z,99.90
2023-02-16T00:25:38.374Z,99.90
2023-02-16T00:28:07.879Z,99.90
2023-02-16T00:30:34.597Z,99.90
2023-02-16T00:33:01.489Z,99.90
2023-02-16T00:35:28.211Z,99.90
2023-02-16T00:37:54.815Z,99.90
2023-02-16T00:40:21.431Z,99.90
2023-02-16T00:42:48.071Z,99.90
2023-02-16T00:45:16.775Z,99.90
2023-02-16T00:47:44.667Z,99.90
2023-02-16T00:50:15.131Z,99.90
2023-02-16T00:52:46.335Z,99.90
2023-02-16T00:55:16.729Z,99.90
2023-02-16T00:57:46.696Z,99.90
2023-02-16T01:00:22.969Z,99.90
2023-02-16T01:02:53.047Z,99.90
2023-02-16T01:05:19.926Z,99.90
2023-02-16T01:08:05.352Z,99.90
2023-02-16T01:10:52.904Z,99.90
2023-02-16T01:13:19.554Z,99.90
2023-02-16T01:15:46.305Z,99.90
2023-02-16T01:18:14.218Z,99.90
2023-02-16T01:20:40.817Z,99.90
2023-02-16T01:23:08.908Z,99.90
2023-02-16T01:25:36.260Z,99.90
2023-02-16T01:28:03.356Z,99.90
2023-02-16T01:30:30.052Z,99.90
2023-02-16T01:32:56.773Z,99.90
2023-02-16T01:35:33.885Z,99.90
2023-02-16T01:38:00.551Z,99.90
2023-02-16T01:40:35.825Z,99.90
2023-02-16T01:43:18.900Z,99.90
2023-02-16T01:45:47.098Z,99.90
2023-02-16T01:48:18.188Z,99.90
2023-02-16T01:50:57.156Z,99.90
2023-02-16T01:53:30.453Z,99.90
2023-02-16T01:56:03.852Z,99.90
2023-02-16T01:58:36.698Z,99.90
2023-02-16T02:01:05.097Z,99.90
2023-02-16T02:03:53.751Z,99.90
2023-02-16T02:06:32.648Z,99.90
2023-02-16T02:09:06.242Z,99.90
2023-02-16T02:11:35.717Z,99.90
2023-02-16T02:14:07.231Z,99.90
2023-02-16T02:16:34.741Z,99.90
2023-02-16T02:19:01.502Z,99.90
2023-02-16T02:22:06.452Z,99.90
2023-02-16T02:24:48.392Z,99.90
2023-02-16T02:27:23.979Z,99.90
2023-02-16T02:30:11.272Z,99.90
2023-02-16T02:32:44.108Z,99.90
2023-02-16T02:35:18.704Z,99.90
2023-02-16T02:37:48.125Z,99.90
2023-02-16T02:40:18.430Z,99.90
2023-02-16T02:42:54.223Z,99.90
2023-02-16T02:45:29.788Z,99.90
2023-02-16T02:48:06.314Z,99.90
2023-02-16T02:51:04.518Z,99.90
2023-02-16T02:53:34.190Z,99.90
2023-02-16T02:56:21.250Z,99.90
2023-02-16T02:59:08.750Z,99.90
2023-02-16T03:01:36.555Z,99.90
2023-02-16T03:04:04.090Z,99.90
2023-02-16T03:06:33.886Z,99.90
2023-02-16T03:09:02.469Z,99.90
2023-02-16T03:11:48.358Z,99.90
2023-02-16T03:14:15.134Z,99.90
2023-02-16T03:16:46.818Z,99.90
2023-02-16T03:19:34.406Z,99.90
2023-02-16T03:22:20.075Z,99.90
2023-02-16T03:25:05.538Z,99.90
2023-02-16T03:27:53.923Z,99.90
2023-02-16T03:30:21.428Z,99.90
2023-02-16T03:32:48.585Z,99.90
2023-02-16T03:35:15.483Z,99.90
2023-02-16T03:37:43.393Z,99.90
2023-02-16T03:40:30.948Z,99.90
2023-02-16T03:42:58.632Z,99.90
2023-02-16T03:45:25.632Z,99.90
2023-02-16T03:47:52.533Z,99.90
2023-02-16T03:50:19.151Z,99.90
2023-02-16T03:52:45.811Z,99.90
2023-02-16T03:55:12.416Z,99.90
2023-02-16T03:57:39.574Z,99.90
2023-02-16T04:00:06.507Z,99.90
2023-02-16T04:02:39.714Z,99.90
2023-02-16T04:05:06.532Z,99.90
2023-02-16T04:07:33.153Z,99.90
2023-02-16T04:09:59.765Z,99.90
2023-02-16T04:12:38.321Z,99.90
2023-02-16T04:15:06.183Z,99.90
2023-02-16T04:17:32.799Z,99.90
2023-02-16T04:19:59.411Z,99.90
2023-02-16T04:22:26.115Z,99.90
2023-02-16T04:24:52.749Z,99.90
2023-02-16T04:27:19.665Z,99.90
2023-02-16T04:29:46.292Z,99.90
2023-02-16T04:32:12.974Z,99.90
2023-02-16T04:34:39.759Z,99.90
2023-02-16T04:37:06.510Z,99.90
2023-02-16T04:39:33.268Z,99.90
2023-02-16T04:41:59.878Z,99.90
2023-02-16T04:44:26.532Z,99.90
2023-02-16T04:46:53.172Z,99.90
2023-02-16T04:49:19.856Z,99.90
2023-02-16T04:51:46.454Z,99.90
2023-02-16T04:54:13.116Z,99.90
2023-02-16T04:56:39.732Z,99.90
2023-02-16T04:59:06.396Z,99.90
2023-02-16T05:01:33.105Z,99.90
2023-02-16T05:03:59.851Z,99.90
2023-02-16T05:06:26.502Z,99.90
2023-02-16T05:08:53.118Z,99.90
2023-02-16T05:11:38.436Z,99.90
2023-02-16T05:14:23.943Z,99.90
2023-02-16T05:16:50.930Z,99.90
2023-02-16T05:19:17.527Z,99.90
2023-02-16T05:21:44.114Z,99.90
2023-02-16T05:24:11.516Z,99.90
2023-02-16T05:26:41.955Z,99.90
2023-02-16T05:29:08.675Z,99.90
2023-02-16T05:31:35.413Z,99.90
2023-02-16T05:34:02.141Z,99.90
2023-02-16T05:36:28.820Z,99.90
2023-02-16T05:38:55.772Z,99.90
2023-02-16T05:41:25.163Z,99.90
2023-02-16T05:43:56.180Z,99.90
2023-02-16T05:46:23.813Z,99.90
2023-02-16T05:48:50.698Z,99.90
2023-02-16T05:51:17.815Z,99.90
2023-02-16T05:53:44.740Z,99.90
2023-02-16T05:56:11.695Z,99.90
2023-02-16T05:58:38.544Z,99.90
2023-02-16T06:01:05.781Z,99.90
2023-02-16T06:03:33.068Z,99.90
2023-02-16T06:06:00.668Z,99.90
2023-02-16T06:08:27.641Z,99.90
2023-02-16T06:10:54.488Z,99.90
2023-02-16T06:13:21.868Z,99.90
2023-02-16T06:15:51.669Z,99.90
2023-02-16T06:18:18.343Z,99.90
2023-02-16T06:20:44.968Z,99.90
2023-02-16T06:23:12.289Z,99.90
2023-02-16T06:25:41.343Z,99.90
2023-02-16T06:28:07.962Z,99.90
2023-02-16T06:30:35.345Z,99.90
2023-02-16T06:33:02.376Z,99.90
2023-02-16T06:35:29.135Z,99.90
2023-02-16T06:37:55.723Z,99.90
2023-02-16T06:40:22.585Z,99.90
2023-02-16T06:42:49.181Z,99.90
2023-02-16T06:45:15.814Z,99.90
2023-02-16T06:48:07.479Z,99.90
2023-02-16T06:50:59.671Z,99.90
2023-02-16T06:53:26.464Z,99.90
2023-02-16T06:55:53.152Z,99.90
2023-02-16T06:58:19.852Z,99.90
2023-02-16T07:00:46.579Z,99.90
2023-02-16T10:51:51.294Z,64.20
2023-02-16T10:54:25.508Z,64.50
2023-02-16T10:57:01.016Z,63.60
2023-02-16T10:59:37.123Z,63.40
2023-02-16T11:02:15.904Z,63.80
2023-02-16T11:04:44.551Z,63.40
2023-02-16T11:07:16.922Z,63.30
2023-02-16T11:09:44.665Z,62.60
2023-02-16T11:12:14.830Z,62.80
2023-02-16T11:17:47.118Z,62.00
2023-02-16T11:20:45.142Z,62.90
2023-02-16T11:23:27.705Z,62.50
2023-02-16T11:25:54.460Z,62.40
2023-02-16T11:28:47.981Z,62.00
2023-02-16T11:31:33.662Z,61.60
2023-02-16T11:34:02.571Z,60.40
2023-02-16T11:36:36.088Z,59.50
2023-02-16T11:39:08.038Z,59.00
2023-02-16T11:41:35.428Z,59.20
2023-02-16T11:44:03.172Z,59.30
2023-02-16T11:46:38.868Z,59.50
2023-02-16T11:49:24.899Z,60.90
2023-02-16T11:51:52.987Z,61.30
2023-02-16T11:54:38.492Z,62.80
2023-02-16T11:57:15.679Z,62.40
2023-02-16T11:59:42.500Z,61.60
2023-02-16T12:02:12.495Z,61.90
2023-02-16T12:04:39.116Z,63.40
2023-02-16T12:07:20.278Z,64.10
2023-02-16T12:10:07.233Z,64.60
2023-02-16T12:12:40.222Z,65.40
2023-02-16T12:15:22.617Z,65.80
2023-02-16T12:18:07.878Z,66.80
2023-02-16T12:20:45.295Z,68.50
2023-02-16T12:23:23.240Z,70.40
2023-02-16T12:25:56.092Z,71.20
2023-02-16T12:28:32.383Z,72.30
2023-02-16T12:31:11.613Z,73.00
2023-02-16T12:33:49.641Z,73.10
2023-02-16T12:36:34.844Z,74.30
2023-02-16T12:39:07.601Z,75.90
2023-02-16T12:41:43.938Z,76.70
2023-02-16T12:44:20.146Z,77.90
2023-02-16T12:46:48.637Z,78.20
2023-02-16T12:49:17.973Z,77.00
2023-02-16T12:51:52.064Z,76.30
2023-02-16T12:54:27.796Z,75.30
2023-02-16T12:57:01.178Z,74.60
2023-02-16T12:59:35.919Z,74.40
2023-02-16T13:02:04.708Z,74.10
2023-02-16T13:04:57.422Z,73.40
2023-02-16T13:07:38.240Z,72.20
2023-02-16T13:10:23.514Z,70.60
2023-02-16T13:12:50.375Z,70.30
2023-02-16T13:15:27.060Z,71.70
2023-02-16T13:17:58.531Z,72.40
2023-02-16T13:20:25.205Z,72.90
2023-02-16T13:23:08.108Z,75.20
2023-02-16T13:25:43.114Z,76.30
2023-02-16T13:28:25.341Z,77.10
2023-02-16T13:31:15.559Z,77.90
2023-02-16T13:34:00.116Z,79.20
2023-02-16T13:36:48.970Z,79.20
2023-02-16T13:39:24.802Z,79.20
2023-02-16T13:41:57.551Z,79.00
2023-02-16T13:44:28.047Z,78.20
2023-02-16T13:46:55.028Z,78.30
2023-02-16T13:49:31.213Z,78.20
2023-02-16T13:51:58.407Z,79.00
2023-02-16T13:54:30.353Z,80.00
2023-02-16T13:56:57.418Z,80.70
2023-02-16T13:59:24.099Z,81.70
2023-02-16T14:01:51.822Z,83.10
2023-02-16T14:04:21.686Z,84.20
2023-02-16T14:07:13.346Z,84.90
2023-02-16T14:09:39.968Z,85.70
2023-02-16T14:12:16.594Z,87.20
2023-02-16T14:14:43.225Z,87.80
2023-02-16T14:17:18.965Z,88.30
2023-02-16T14:19:58.067Z,89.10
2023-02-16T14:22:28.014Z,89.80
2023-02-16T14:24:55.938Z,90.30
2023-02-16T14:27:41.374Z,90.70
2023-02-16T14:30:27.084Z,91.20
2023-02-16T14:32:57.611Z,91.60
2023-02-16T14:35:33.996Z,92.40
2023-02-16T14:38:00.747Z,92.80
2023-02-16T14:40:59.702Z,93.40
2023-02-16T14:43:26.476Z,94.20
2023-02-16T14:46:11.948Z,95.10
2023-02-16T14:48:56.681Z,96.00
2023-02-16T14:51:42.256Z,97.00
2023-02-16T14:54:37.184Z,98.10
2023-02-16T14:57:23.455Z,99.00
2023-02-16T15:00:00.998Z,99.90
2023-02-16T15:02:35.345Z,99.90
2023-02-16T15:05:19.347Z,99.90
2023-02-16T15:07:47.988Z,99.90
2023-02-16T15:10:14.926Z,99.90
2023-02-16T15:12:44.016Z,99.90
2023-02-16T15:15:18.251Z,99.90
2023-02-16T15:17:46.128Z,99.90
2023-02-16T15:20:31.115Z,99.90
2023-02-16T15:22:59.648Z,99.90
2023-02-16T15:25:32.592Z,99.90
2023-02-16T15:28:00.629Z,99.90
2023-02-16T15:30:35.017Z,99.90
2023-02-16T15:33:03.711Z,99.90
2023-02-16T15:35:30.672Z,99.90
2023-02-16T15:38:05.587Z,99.90
2023-02-16T15:40:35.108Z,99.90
2023-02-16T15:43:10.154Z,99.90
2023-02-16T15:45:40.900Z,99.90
2023-02-16T15:48:20.241Z,99.90
2023-02-16T15:50:47.063Z,99.90
2023-02-16T15:53:14.940Z,99.90
2023-02-16T15:55:45.690Z,99.90
2023-02-16T15:58:14.788Z,99.90
2023-02-16T16:00:42.471Z,99.90
2023-02-16T16:03:10.252Z,99.90
2023-02-16T16:05:36.970Z,99.90
2023-02-16T16:08:04.320Z,99.90
2023-02-16T16:10:32.543Z,99.90
2023-02-16T16:13:01.403Z,99.90
2023-02-16T16:15:29.003Z,99.90
2023-02-16T16:17:59.678Z,99.90
2023-02-16T16:20:29.155Z,99.90
2023-02-16T16:23:04.982Z,99.90
2023-02-16T16:25:37.768Z,99.90
2023-02-16T16:28:06.615Z,99.90
2023-02-16T16:30:34.745Z,99.90
2023-02-16T16:33:05.829Z,99.90
2023-02-16T16:35:43.952Z,99.90
2023-02-16T16:38:27.822Z,99.90
2023-02-16T16:40:58.557Z,99.90
2023-02-16T16:43:29.763Z,99.90
2023-02-16T16:46:16.814Z,99.90
2023-02-16T16:48:45.120Z,99.90
2023-02-16T16:51:23.920Z,99.90
2023-02-16T16:53:50.773Z,99.90
2023-02-16T16:56:18.810Z,99.90
2023-02-16T16:58:53.131Z,99.90
2023-02-16T17:01:23.288Z,99.90
2023-02-16T17:03:50.264Z,99.90
2023-02-16T17:06:18.292Z,99.90
2023-02-16T17:08:45.590Z,99.90
2023-02-16T17:11:35.555Z,99.90
2023-02-16T17:14:15.488Z,99.90
2023-02-16T17:16:43.759Z,99.90
2023-02-16T17:19:14.864Z,99.90
2023-02-16T17:21:42.132Z,99.90
2023-02-16T17:24:10.067Z,99.90
2023-02-16T17:26:37.721Z,99.90
2023-02-16T17:29:05.383Z,99.90
2023-02-16T17:31:32.589Z,99.90
2023-02-16T17:33:59.372Z,99.90
2023-02-16T17:36:27.318Z,99.90
2023-02-16T17:38:54.086Z,99.90
2023-02-16T17:41:22.235Z,99.90
2023-02-16T17:43:49.095Z,99.90
2023-02-16T17:46:16.420Z,99.90
2023-02-16T17:48:43.159Z,99.90
2023-02-16T17:51:17.019Z,99.90
2023-02-16T17:53:43.678Z,99.90
2023-02-16T17:56:14.404Z,99.90
2023-02-16T17:58:41.405Z,99.90
2023-02-16T18:01:10.217Z,99.90
2023-02-16T18:03:36.991Z,99.90
2023-02-16T18:06:03.971Z,99.90
2023-02-16T18:08:30.900Z,99.90
2023-02-16T18:11:02.004Z,99.90
2023-02-16T18:13:29.960Z,99.90
2023-02-16T18:15:58.135Z,99.90
2023-02-16T18:18:24.872Z,99.90
2023-02-16T18:20:51.500Z,99.90
2023-02-16T18:23:18.181Z,99.90
2023-02-16T18:25:45.692Z,99.90
2023-02-16T18:28:20.012Z,99.90
2023-02-16T18:30:48.474Z,99.90
2023-02-16T18:33:15.434Z,99.90
2023-02-16T18:35:42.082Z,99.90
2023-02-16T18:38:08.726Z,99.90
2023-02-16T18:40:35.377Z,99.90
2023-02-16T18:43:02.043Z,99.90
2023-02-16T18:45:28.730Z,99.90
2023-02-16T18:47:55.635Z,99.90
2023-02-16T18:50:22.252Z,99.90
2023-02-16T18:52:48.916Z,99.90
2023-02-16T18:55:15.812Z,99.90
2023-02-16T18:57:42.688Z,99.90
2023-02-16T19:00:10.509Z,99.90
2023-02-16T19:02:37.437Z,99.90
2023-02-16T19:05:04.374Z,99.90
2023-02-16T19:07:31.060Z,99.90
2023-02-16T19:09:57.743Z,99.90
2023-02-16T19:12:24.959Z,99.90
2023-02-16T19:14:51.695Z,99.90
2023-02-16T19:17:18.351Z,99.90
2023-02-16T19:19:45.834Z,99.90
2023-02-16T19:22:12.644Z,99.90
2023-02-16T19:24:39.265Z,99.90
2023-02-16T19:27:06.085Z,99.90
2023-02-16T19:29:32.867Z,99.90
2023-02-16T19:31:59.588Z,99.90
2023-02-16T19:34:26.283Z,99.90
2023-02-16T19:36:52.914Z,99.90
2023-02-16T19:39:19.657Z,99.90
2023-02-16T19:41:46.349Z,99.90
2023-02-16T19:44:14.329Z,99.90
2023-02-16T19:46:41.494Z,99.90
2023-02-16T19:49:08.557Z,99.90
2023-02-16T19:51:35.183Z,99.90
2023-02-16T19:54:02.105Z,99.90
2023-02-16T19:56:28.779Z,99.90
2023-02-16T19:58:57.078Z,99.90
2023-02-16T20:01:25.050Z,99.90
2023-02-16T20:03:52.215Z,99.90
2023-02-16T20:06:20.015Z,99.90
2023-02-16T20:08:47.129Z,99.90
2023-02-16T20:11:14.315Z,99.90
2023-02-16T20:13:40.965Z,99.90
2023-02-16T20:16:08.776Z,99.90
2023-02-16T20:18:35.627Z,99.90
2023-02-16T20:21:03.974Z,99.90
2023-02-16T20:23:31.117Z,99.90
2023-02-16T20:25:58.125Z,99.90
2023-02-16T20:28:25.542Z,99.90
2023-02-16T20:30:52.781Z,99.90
2023-02-16T20:33:20.208Z,99.90
2023-02-16T20:35:47.569Z,99.90
2023-02-16T20:38:15.004Z,99.90
2023-02-16T20:40:42.171Z,99.90
2023-02-16T20:43:09.020Z,99.90
2023-02-16T20:45:41.091Z,99.90
2023-02-16T20:48:08.571Z,99.90
2023-02-16T20:50:35.376Z,99.90
2023-02-16T20:53:02.054Z,99.90
2023-02-16T20:55:28.658Z,99.90
2023-02-16T20:57:55.362Z,99.90
2023-02-16T21:00:25.215Z,99.90
2023-02-16T21:02:52.147Z,99.90
2023-02-16T21:05:19.402Z,99.90
2023-02-16T21:07:48.045Z,99.90
2023-02-16T21:10:15.955Z,99.90
2023-02-16T21:12:42.729Z,99.90
2023-02-16T21:15:10.085Z,99.90
2023-02-16T21:17:37.174Z,99.90
2023-02-16T21:20:05.216Z,99.90
2023-02-16T21:22:32.045Z,99.90
2023-02-16T21:24:58.737Z,99.90
2023-02-16T21:27:25.364Z,99.90
2023-02-16T21:29:52.434Z,99.90
2023-02-16T21:32:19.369Z,99.90
2023-02-16T21:34:46.408Z,99.90
2023-02-16T21:37:13.096Z,99.90
2023-02-16T21:39:58.666Z,99.90
2023-02-16T21:42:25.567Z,99.90
2023-02-16T21:45:12.517Z,99.90
2023-02-16T21:47:58.920Z,99.90
2023-02-16T21:50:26.237Z,99.90
2023-02-16T21:52:53.509Z,99.90
2023-02-16T21:55:39.058Z,99.90
2023-02-16T21:58:07.852Z,99.90
2023-02-16T22:00:35.426Z,99.90
2023-02-16T22:03:02.536Z,99.90
2023-02-16T22:05:29.321Z,99.90
2023-02-16T22:07:56.028Z,99.90
2023-02-16T22:10:22.662Z,99.90
2023-02-16T22:12:49.340Z,99.90
2023-02-16T22:15:15.971Z,99.90
2023-02-16T22:17:42.632Z,99.90
2023-02-16T22:20:10.280Z,99.90
2023-02-16T22:22:37.666Z,99.90
2023-02-16T22:25:04.528Z,99.90
2023-02-16T22:27:31.330Z,99.90
2023-02-16T22:29:58.024Z,99.90
2023-02-16T22:32:24.872Z,99.90
2023-02-16T22:34:51.491Z,99.90
2023-02-16T22:37:18.152Z,99.90
2023-02-16T22:39:44.776Z,99.90
2023-02-16T22:42:11.379Z,99.90
2023-02-16T22:44:38.116Z,99.90
2023-02-16T22:47:04.788Z,99.90
2023-02-16T22:49:31.602Z,99.90
2023-02-16T22:51:58.264Z,99.90
2023-02-16T22:54:25.074Z,99.90
2023-02-16T22:56:51.831Z,99.90
2023-02-16T22:59:18.673Z,99.90
2023-02-16T23:01:45.380Z,99.90
2023-02-16T23:04:15.854Z,99.90
2023-02-16T23:06:44.821Z,99.90
2023-02-16T23:09:14.059Z,99.90
2023-02-16T23:11:40.787Z,99.90
2023-02-16T23:14:16.135Z,99.90
2023-02-16T23:16:47.965Z,99.90
2023-02-16T23:19:16.615Z,99.90
2023-02-16T23:21:43.616Z,99.90
2023-02-16T23:24:12.878Z,99.90
2023-02-16T23:26:39.671Z,99.90
2023-02-16T23:29:07.353Z,99.90
2023-02-16T23:31:34.892Z,99.90
2023-02-16T23:34:02.615Z,99.90
2023-02-16T23:36:29.761Z,99.90
2023-02-16T23:38:59.400Z,99.90
2023-02-16T23:41:26.119Z,99.90
2023-02-16T23:43:53.000Z,99.90
2023-02-16T23:46:19.773Z,99.90
2023-02-16T23:48:46.448Z,99.90
2023-02-16T23:51:13.418Z,99.90
2023-02-16T23:53:40.217Z,99.90
2023-02-16T23:56:17.574Z,99.90
2023-02-16T23:58:47.806Z,99.90
